• Join FlightAware (Why Join?)
  • Login
  • US Flag 
03:49AM EDT


 

Airport Tracker/Info


-or-


 

Live Flight TrackerFlight Track Log ✈ AAL961 ✈ 25-Aug-2013 ✈ KMIA - SBMN / PLL

Flight Track Log - Related Links

Times and Time Zones

All times are in EDT time to prevent confusion due to time zone crossing. See the AAL961 flight status page for this flight to view local times or setup timezone preferences in your user account.

Time Position Orientation Groundspeed Altitude Reporting Facility
EDT Latitude Longitude Course Direction KTS MPH feet Rate Location/Type
05:36PM 25.8010 -80.2910 90° East 125 144  Level FlightAware
05:36PM 25.8020 -80.2760 86° East 174 200 100 1,680 Climbing FlightAware
05:36PM 25.7950 -80.2510 107° East 184 212 1,300 1,920 Climbing FlightAware
05:37PM 25.7870 -80.2330 116° Southeast 210 242 1,700 1,500 Climbing FlightAware
05:37PM 25.7780 -80.2110 114° Southeast 238 274 2,300 2,040 Climbing FlightAware
05:37PM 25.7700 -80.1940 118° Southeast 255 293 2,900 2,460 Climbing FlightAware
05:38PM 25.7600 -80.1690 114° Southeast 261 300 3,800 3,120 Climbing FlightAware
05:38PM 25.7540 -80.1440 105° East 262 302 5,000 3,060 Climbing FlightAware
05:38PM 25.7480 -80.1160 103° East 274 315 5,800 2,700 Climbing FlightAware
05:39PM 25.7420 -80.0880 103° East 281 323 6,800 3,000 Climbing FlightAware
05:39PM 25.7370 -80.0670 105° East 280 322 7,600 3,060 Climbing FlightAware
05:39PM 25.7300 -80.0400 106° East 283 326 8,600 2,820 Climbing FlightAware
05:40PM 25.7190 -79.9880 103° East 294 338 10,200 1,800 Climbing FlightAware
05:40PM 25.7060 -79.9330 105° East 340 391 10,800 1,020 Climbing FlightAware
05:41PM 25.6920 -79.8690 104° East 383 441 11,400 1,500 Climbing FlightAware
05:42PM 25.6760 -79.8000 104° East 400 460 12,600 2,400 Climbing FlightAware
05:42PM 25.6600 -79.7300 104° East 404 465 14,200 2,640 Climbing FlightAware
05:43PM 25.6460 -79.6710 105° East 407 468 15,500 2,400 Climbing FlightAware
05:43PM 25.6280 -79.5950 105° East 414 476 16,900 2,160 Climbing FlightAware
05:44PM 25.6110 -79.5190 104° East 426 490 18,100 1,500 Climbing FlightAware
05:44PM 25.5930 -79.4440 105° East 444 511 18,700 1,320 Climbing FlightAware
05:45PM 25.5770 -79.3730 104° East 452 520 19,600 1,680 Climbing FlightAware
05:46PM 25.5590 -79.2960 105° East 457 526 20,600 1,560 Climbing FlightAware
05:46PM 25.5410 -79.2170 104° East 466 536 21,400 1,140 Climbing FlightAware
05:47PM 25.5210 -79.1310 104° East 480 552 22,000 1,200 Climbing FlightAware
05:47PM 25.4870 -79.0270 110° East 490 564 23,100 1,440 Climbing FlightAware
05:48PM 25.4450 -78.9700 129° Southeast 491 565 23,800 1,260 Climbing FlightAware
05:49PM 25.3900 -78.9010 131° Southeast 491 565 24,500 1,200 Climbing FlightAware
05:49PM 25.3420 -78.8420 132° Southeast 494 568 25,200 1,380 Climbing FlightAware
05:50PM 25.2760 -78.7590 131° Southeast 495 570 26,300 1,620 Climbing FlightAware
05:51PM 25.2150 -78.6830 132° Southeast 489 563 27,400 1,680 Climbing FlightAware
05:51PM 25.1590 -78.6150 132° Southeast 487 560 28,400 1,440 Climbing FlightAware
05:52PM 25.1090 -78.5520 131° Southeast 489 563 29,100 780 Climbing FlightAware
05:53PM 25.0310 -78.4550 132° Southeast 491 565 29,600 1,200 Climbing FlightAware
05:53PM 24.9720 -78.3830 132° Southeast 490 564 30,900 1,200 Climbing FlightAware
05:54PM 24.9270 -78.3240 130° Southeast 489 563 31,100 120 Climbing FlightAware
05:54PM 24.8850 -78.2690 130° Southeast 489 563 31,100  Level FlightAware
05:55PM 24.8390 -78.2090 130° Southeast 489 563 31,100  Level FlightAware
05:56PM 24.7950 -78.1510 130° Southeast 489 563 31,100  Level FlightAware
05:56PM 24.7500 -78.0920 130° Southeast 489 563 31,100  Level FlightAware
05:57PM 24.7040 -78.0320 130° Southeast 489 563 31,100  Level FlightAware
05:57PM 24.6590 -77.9720 130° Southeast 489 563 31,100  Level FlightAware
05:58PM 24.6140 -77.9140 130° Southeast 489 563 31,100  Level FlightAware
05:59PM 24.5700 -77.8550 129° Southeast 489 563 31,100  Level FlightAware
05:59PM 24.5250 -77.7970 130° Southeast 489 563 31,100  Level FlightAware
06:00PM 24.4810 -77.7390 130° Southeast 489 563 31,100  Level FlightAware
06:00PM 24.4350 -77.6790 130° Southeast 489 563 31,100  Level FlightAware
06:01PM 24.3890 -77.6190 130° Southeast 489 563 31,100  Level FlightAware
06:02PM 24.3450 -77.5610 130° Southeast 489 563 31,100  Level FlightAware
06:02PM 24.3000 -77.5030 130° Southeast 489 563 31,100  Level FlightAware
06:03PM 24.2560 -77.4450 130° Southeast 489 563 31,100 3,240 Level FlightAware
06:03PM 24.0628 -77.2800 130° Southeast 464 534 35,000 2,460 Climbing Miami Center
06:04PM 23.9711 -77.1728 133° Southeast 474 545 35,000  Level Miami Center
06:05PM 23.8711 -77.0519 132° Southeast 479 551 35,000  Level Miami Center
06:06PM 23.7897 -76.9589 134° Southeast 479 551 35,000  Level Miami Center
06:07PM 23.6997 -76.8475 131° Southeast 479 551 35,000  Level Miami Center
06:08PM 23.6119 -76.7433 133° Southeast 479 551 35,000  Level Miami Center
06:09PM 23.5219 -76.6344 132° Southeast 479 551 35,000  Level Miami Center
06:10PM 23.4319 -76.5283 133° Southeast 479 551 35,000  Level Miami Center
06:11PM 23.3419 -76.4222 133° Southeast 479 551 35,000  Level Miami Center
06:12PM 23.2494 -76.3161 133° Southeast 474 545 35,000  Level Miami Center
06:13PM 23.1592 -76.2103 133° Southeast 474 545 35,000  Level Miami Center
06:14PM 23.0689 -76.1025 132° Southeast 479 551 35,000  Level Miami Center
06:15PM 22.9764 -75.9969 134° Southeast 479 551 35,000  Level Miami Center
06:16PM 22.8881 -75.8892 132° Southeast 473 544 35,000  Level Miami Center
06:17PM 22.7953 -75.7819 133° Southeast 473 544 35,000  Level Miami Center
06:18PM 22.7025 -75.6767 134° Southeast 473 544 35,000  Level Miami Center
06:19PM 22.6139 -75.5719 132° Southeast 473 544 35,000  Level Miami Center
06:20PM 22.5233 -75.4669 133° Southeast 473 544 35,000  Level Miami Center
06:21PM 22.4303 -75.3625 134° Southeast 473 544 35,000  Level Miami Center
06:22PM 22.3394 -75.2556 133° Southeast 473 544 35,000  Level Miami Center
06:23PM 22.2464 -75.1514 134° Southeast 478 550 35,000  Level Miami Center
06:24PM 22.1575 -75.0472 133° Southeast 473 544 35,000  Level Miami Center
06:25PM 22.0561 -74.9544 140° Southeast 473 544 35,000  Level Miami Center
06:26PM 21.9544 -74.8642 141° Southeast 479 551 35,000  Level Miami Center
06:27PM 21.8531 -74.7694 139° Southeast 479 551 35,000  Level Miami Center
06:29PM 21.7514 -74.6772 140° Southeast 479 551 35,000  Level Miami Center
06:30PM 21.6244 -74.5564 138° Southeast 479 551 35,000 -60 Level Miami Center
06:31PM 21.5228 -74.4622 139° Southeast 473 544 34,900 -60 Descending Miami Center
06:32PM 21.4233 -74.3725 140° Southeast 473 544 34,900  Level Miami Center
06:33PM 21.3236 -74.2808 139° Southeast 468 539 35,000  Climbing Miami Center
06:34PM 21.2239 -74.1892 139° Southeast 468 539 35,000  Level Miami Center
06:35PM 21.1242 -74.1000 140° Southeast 468 539 35,000 -60 Level Miami Center
06:36PM 21.0267 -74.0131 140° Southeast 463 533 34,900  Descending Miami Center
06:37PM 20.9353 -73.9283 139° Southeast 452 520 35,000  Climbing Miami Center
06:38PM 20.8375 -73.8394 140° Southeast 452 520 35,000  Level Miami Center
06:39PM 20.7419 -73.7528 140° Southeast 452 520 35,000  Level Miami Center
06:40PM 20.6483 -73.6708 141° Southeast 452 520 35,000  Level Miami Center
06:41PM 20.5550 -73.5867 140° Southeast 447 514 35,000  Level Miami Center
06:42PM 20.4592 -73.5003 140° Southeast 447 514 35,000  Level Miami Center
06:43PM 20.3678 -73.4161 139° Southeast 447 514 35,000  Level Miami Center
06:44PM 20.2739 -73.3344 141° Southeast 441 507 35,000  Level Miami Center
06:45PM 20.1783 -73.2508 141° Southeast 435 501 35,000  Level Miami Center
06:46PM 20.0786 -73.1828 147° Southeast 435 501 35,000  Level Miami Center
06:47PM 19.9708 -73.1239 153° Southeast 435 501 35,000 -60 Level Miami Center
06:48PM 19.8631 -73.0628 152° Southeast 435 501 34,900  Descending Miami Center
06:49PM 19.7572 -73.0019 152° Southeast 441 507 35,000  Climbing Miami Center
06:50PM 19.6494 -72.9433 153° Southeast 441 507 35,000  Level Miami Center
06:52PM 19.4430 -72.8273 152° Southeast  Level FlightAware Approximate
06:59PM 18.6754 -72.3975 152° Southeast  Level FlightAware Approximate
07:00PM 18.5651 -72.3376 153° Southeast  Level FlightAware Approximate
07:01PM 18.4546 -72.2781 153° Southeast  Level FlightAware Approximate
07:02PM 18.3443 -72.2183 153° Southeast  Level FlightAware Approximate
07:03PM 18.2340 -72.1585 153° Southeast  Level FlightAware Approximate
07:04PM 18.1236 -72.0987 153° Southeast  Level FlightAware Approximate
07:05PM 18.0133 -72.0391 153° Southeast  Level FlightAware Approximate
07:06PM 17.9030 -71.9795 153° Southeast  Level FlightAware Approximate
07:07PM 17.7926 -71.9200 153° Southeast  Level FlightAware Approximate
07:08PM 17.6822 -71.8605 153° Southeast  Level FlightAware Approximate
07:09PM 17.5718 -71.8012 153° Southeast  Level FlightAware Approximate
07:09PM 17.5430 -71.7090 153° Southeast 446 513 35,000  Level FlightAware
07:10PM 17.4800 -71.6680 148° Southeast 446 513 35,000  Level FlightAware
07:11PM 17.4030 -71.6170 148° Southeast 446 513 35,000  Level FlightAware
07:11PM 17.3480 -71.5810 148° Southeast 446 513 35,000  Level FlightAware
07:12PM 17.2940 -71.5460 148° Southeast 446 513 35,000  Level FlightAware
07:13PM 17.2410 -71.5110 148° Southeast 446 513 35,000  Level FlightAware
07:13PM 17.1870 -71.4760 148° Southeast 446 513 35,000  Level FlightAware
07:14PM 17.1330 -71.4410 148° Southeast 446 513 35,000  Level FlightAware
07:14PM 17.0780 -71.4050 148° Southeast 446 513 35,000  Level FlightAware
07:15PM 17.0250 -71.3700 148° Southeast 446 513 35,000  Level FlightAware
07:16PM 16.9710 -71.3350 148° Southeast 446 513 35,000  Level FlightAware
07:16PM 16.9160 -71.2990 148° Southeast 446 513 35,000  Level FlightAware
07:17PM 16.8610 -71.2630 148° Southeast 446 513 35,000  Level FlightAware
07:18PM 16.8080 -71.2280 148° Southeast 446 513 35,000  Level FlightAware
07:18PM 16.7540 -71.1930 148° Southeast 446 513 35,000  Level FlightAware
07:19PM 16.7010 -71.1580 148° Southeast 446 513 35,000  Level FlightAware
07:21PM 16.5076 -71.0413 150° Southeast  Level Estimated
07:22PM 16.4002 -70.9765 150° Southeast  Level Estimated
07:23PM 16.2927 -70.9119 150° Southeast  Level Estimated
07:24PM 16.1852 -70.8473 150° Southeast  Level Estimated
07:25PM 16.0777 -70.7827 150° Southeast  Level Estimated
07:26PM 15.9702 -70.7183 150° Southeast  Level Estimated
07:27PM 15.8626 -70.6539 150° Southeast  Level Estimated
07:27PM 15.6000 -70.5610 150° Southeast 457 526 35,000  Level FlightAware
07:28PM 15.7551 -70.5896 150° Southeast  Level Estimated
07:28PM 15.5030 -70.5150 155° Southeast 447 514 35,000  Level FlightAware
07:29PM 15.4350 -70.4830 156° South 446 513 35,000  Level FlightAware
07:29PM 15.3660 -70.4510 156° South 445 512 35,000  Level FlightAware
07:30PM 15.3010 -70.4200 155° Southeast 444 511 35,000  Level FlightAware
07:31PM 15.2230 -70.3830 155° Southeast 445 512 35,000  Level FlightAware
07:31PM 15.1580 -70.3530 156° South 444 511 35,000  Level FlightAware
07:32PM 15.0900 -70.3210 156° South 444 511 35,000  Level FlightAware
07:32PM 15.0240 -70.2900 156° South 452 520 35,000  Level FlightAware
07:33PM 14.9560 -70.2600 157° South 452 520 35,000  Level FlightAware
07:34PM 14.8890 -70.2300 157° South 453 521 35,000  Level FlightAware
07:34PM 14.8200 -70.1990 157° South 454 522 35,000  Level FlightAware
07:35PM 14.7540 -70.1700 157° South 455 524 35,000  Level FlightAware
07:35PM 14.6850 -70.1390 157° South 457 526 35,000  Level FlightAware
07:36PM 14.6180 -70.1080 156° South 458 527 35,000 60 Level FlightAware
07:36PM 14.5480 -70.0770 157° South 459 528 35,100 840 Climbing FlightAware
07:37PM 14.4810 -70.0470 157° South 453 521 36,000 1,440 Climbing FlightAware
07:38PM 14.4140 -70.0170 157° South 440 506 36,800 780 Climbing FlightAware
07:38PM 14.3380 -69.9830 157° South 445 512 37,000 120 Climbing FlightAware
07:39PM 14.2800 -69.9560 156° South 454 522 37,000  Level FlightAware
07:39PM 14.2130 -69.9250 156° South 456 525 37,000  Level FlightAware
07:40PM 14.1450 -69.8940 156° South 457 526 37,000  Level FlightAware
07:41PM 14.0670 -69.8580 156° South 458 527 37,000  Level FlightAware
07:41PM 14.0080 -69.8310 156° South 460 529 37,000  Level FlightAware
07:42PM 13.9390 -69.8000 156° South 460 529 37,000  Level FlightAware
07:42PM 13.8720 -69.7690 156° South 461 531 37,000  Level FlightAware
07:43PM 13.8040 -69.7380 156° South 461 531 37,000  Level FlightAware
07:43PM 13.7350 -69.7060 156° South 461 531 37,000  Level FlightAware
07:44PM 13.6660 -69.6750 156° South 460 529 37,000  Level FlightAware
07:45PM 13.5890 -69.6390 156° South 459 528 37,000  Level FlightAware
07:45PM 13.5100 -69.6040 157° South 459 528 37,000  Level FlightAware
07:46PM 13.4430 -69.5730 156° South 460 529 37,000  Level FlightAware
07:47PM 13.3740 -69.5410 156° South 459 528 37,000  Level FlightAware
07:47PM 13.2960 -69.5060 156° South 458 527 37,000  Level FlightAware
07:48PM 13.2270 -69.4750 156° South 458 527 37,000  Level FlightAware
07:48PM 13.1610 -69.4440 155° Southeast 458 527 37,000  Level FlightAware
07:49PM 13.0920 -69.4130 156° South 457 526 37,000  Level FlightAware
07:50PM 13.0240 -69.3820 156° South 457 526 37,000  Level FlightAware
07:50PM 12.9610 -69.3410 148° Southeast 457 526 37,000  Level FlightAware
07:51PM 12.9080 -69.2890 136° Southeast 458 527 37,000  Level FlightAware
07:51PM 12.8550 -69.2340 135° Southeast 458 527 37,000  Level FlightAware
07:52PM 12.8010 -69.1800 136° Southeast 458 527 37,000  Level FlightAware
07:52PM 12.7520 -69.1290 135° Southeast 459 528 37,000  Level FlightAware
07:53PM 12.6980 -69.0760 136° Southeast 455 524 37,000  Level FlightAware
07:54PM 12.6420 -69.0190 135° Southeast 456 525 37,000  Level FlightAware
07:54PM 12.5940 -68.9700 135° Southeast 455 524 37,000  Level FlightAware
07:55PM 12.5360 -68.9110 135° Southeast 456 525 37,000  Level FlightAware
07:55PM 12.4830 -68.8580 136° Southeast 456 525 37,000  Level FlightAware
07:56PM 12.4290 -68.8030 135° Southeast 456 525 37,000  Level FlightAware
07:57PM 12.3780 -68.7520 136° Southeast 457 526 37,000  Level FlightAware
07:57PM 12.3220 -68.6960 136° Southeast 458 527 37,000  Level FlightAware
07:58PM 12.2700 -68.6430 135° Southeast 459 528 37,000  Level FlightAware
07:58PM 12.2070 -68.5800 136° Southeast 461 531 37,000  Level FlightAware
07:59PM 12.1520 -68.5250 136° Southeast 461 531 37,000  Level FlightAware
08:00PM 12.1000 -68.4720 135° Southeast 461 531 37,000  Level FlightAware
08:00PM 12.0440 -68.4170 136° Southeast 461 531 37,000  Level FlightAware
08:01PM 11.9890 -68.3620 136° Southeast 461 531 37,000  Level FlightAware
08:01PM 11.9360 -68.3090 136° Southeast 461 531 37,000  Level FlightAware
08:02PM 11.8820 -68.2550 136° Southeast 461 531 37,000  Level FlightAware
08:03PM 11.8280 -68.2010 136° Southeast 461 531 37,000  Level FlightAware
08:03PM 11.7730 -68.1450 135° Southeast 460 529 37,000  Level FlightAware
08:04PM 11.7180 -68.0910 136° Southeast 460 529 37,000  Level FlightAware
08:04PM 11.6640 -68.0360 135° Southeast 461 531 37,000  Level FlightAware
08:05PM 11.6100 -67.9830 136° Southeast 461 531 37,000  Level FlightAware
08:05PM 11.5550 -67.9280 136° Southeast 460 529 37,000  Level FlightAware
08:06PM 11.5010 -67.8740 136° Southeast 458 527 37,000  Level FlightAware
08:07PM 11.4480 -67.8210 136° Southeast 457 526 37,000  Level FlightAware
08:07PM 11.3930 -67.7670 136° Southeast 456 525 37,000  Level FlightAware
08:08PM 11.3400 -67.7140 136° Southeast 456 525 37,000  Level FlightAware
08:08PM 11.2870 -67.6610 136° Southeast 454 522 37,000  Level FlightAware
08:09PM 11.2350 -67.6090 136° Southeast 452 520 37,000  Level FlightAware
08:10PM 11.1810 -67.5550 136° Southeast 456 525 37,000  Level FlightAware
08:10PM 11.1290 -67.5040 136° Southeast 456 525 37,000  Level FlightAware
08:11PM 11.0750 -67.4510 136° Southeast 455 524 37,000  Level FlightAware
08:11PM 11.0300 -67.4060 136° Southeast 452 520 37,000  Level FlightAware
08:12PM 10.9610 -67.3370 136° Southeast 454 522 37,000  Level FlightAware
08:13PM 10.9080 -67.2850 136° Southeast 453 521 37,000  Level FlightAware
08:13PM 10.8540 -67.2310 136° Southeast 452 520 37,000  Level FlightAware
08:14PM 10.8000 -67.1780 136° Southeast 451 519 37,000  Level FlightAware
08:14PM 10.7470 -67.1250 136° Southeast 456 525 37,000  Level FlightAware
08:15PM 10.6950 -67.0740 136° Southeast 452 520 37,000  Level FlightAware
08:15PM 10.6400 -67.0200 136° Southeast 451 519 37,000  Level FlightAware
08:16PM 10.5720 -66.9670 143° Southeast 450 518 37,000  Level FlightAware
08:17PM 10.5070 -66.9280 149° Southeast 450 518 37,000  Level FlightAware
08:17PM 10.4450 -66.8900 149° Southeast 450 518 37,000  Level FlightAware
08:18PM 10.3710 -66.8460 150° Southeast 450 518 37,000  Level FlightAware
08:18PM 10.3170 -66.8140 150° Southeast 450 518 37,000  Level FlightAware
08:19PM 10.2520 -66.7750 149° Southeast 448 516 37,000  Level FlightAware
08:20PM 10.1890 -66.7400 151° Southeast 446 513 37,000  Level FlightAware
08:20PM 10.1250 -66.7040 151° Southeast 444 511 37,000  Level FlightAware
08:21PM 10.0550 -66.6630 150° Southeast 443 510 37,000  Level FlightAware
08:22PM 9.9850 -66.6210 149° Southeast 443 510 37,000  Level FlightAware
08:22PM 9.9220 -66.5850 151° Southeast 448 516 37,000  Level FlightAware
08:23PM 9.8490 -66.5420 150° Southeast 444 511 37,000  Level FlightAware
08:23PM 9.7950 -66.5100 150° Southeast 451 519 37,000  Level FlightAware
08:24PM 9.7170 -66.4650 150° Southeast 460 529 37,000  Level FlightAware
08:25PM 9.6510 -66.4270 150° Southeast 461 531 37,000  Level FlightAware
08:25PM 9.5870 -66.3890 150° Southeast 453 521 37,000  Level FlightAware
08:26PM 9.5350 -66.3590 150° Southeast 460 529 37,000  Level FlightAware
08:26PM 9.4730 -66.3230 150° Southeast 461 531 37,000  Level FlightAware
08:27PM 9.4100 -66.2860 150° Southeast 461 531 37,000  Level FlightAware
08:28PM 9.3530 -66.2530 150° Southeast 461 531 37,000  Level FlightAware
08:28PM 9.2970 -66.2200 150° Southeast 461 531 37,000  Level FlightAware
08:29PM 9.2400 -66.1870 150° Southeast 461 531 37,000  Level FlightAware
08:29PM 9.1820 -66.1530 150° Southeast 461 531 37,000  Level FlightAware
08:30PM 9.1240 -66.1190 150° Southeast 461 531 37,000  Level FlightAware
08:31PM 9.0680 -66.0860 150° Southeast 461 531 37,000  Level FlightAware
08:31PM 9.0110 -66.0530 150° Southeast 461 531 37,000  Level FlightAware
08:32PM 8.9540 -66.0200 150° Southeast 461 531 37,000  Level FlightAware
08:32PM 8.8980 -65.9870 150° Southeast 461 531 37,000  Level FlightAware
08:33PM 8.8400 -65.9530 150° Southeast 461 531 37,000  Level FlightAware
08:34PM 8.7830 -65.9200 150° Southeast 461 531 37,000  Level FlightAware
08:34PM 8.7270 -65.8870 150° Southeast 461 531 37,000  Level FlightAware
08:35PM 8.6700 -65.8540 150° Southeast 461 531 37,000  Level FlightAware
08:35PM 8.6140 -65.8210 150° Southeast 461 531 37,000  Level FlightAware
08:36PM 8.5560 -65.7870 150° Southeast 461 531 37,000  Level FlightAware
08:39PM 8.2814 -65.6277 150° Southeast  Level FlightAware Approximate
08:40PM 8.1730 -65.5648 150° Southeast  Level FlightAware Approximate
08:41PM 8.0646 -65.5020 150° Southeast  Level FlightAware Approximate
08:42PM 7.9562 -65.4392 150° Southeast  Level FlightAware Approximate
08:43PM 7.8477 -65.3765 150° Southeast  Level FlightAware Approximate
08:44PM 7.7393 -65.3138 150° Southeast  Level FlightAware Approximate
08:45PM 7.6308 -65.2511 150° Southeast  Level FlightAware Approximate
08:46PM 7.5224 -65.1885 150° Southeast  Level FlightAware Approximate
08:47PM 7.4139 -65.1259 150° Southeast  Level FlightAware Approximate
08:48PM 7.3054 -65.0633 150° Southeast  Level FlightAware Approximate
08:49PM 7.1969 -65.0008 150° Southeast  Level FlightAware Approximate
08:50PM 7.0884 -64.9382 150° Southeast  Level FlightAware Approximate
08:51PM 6.9799 -64.8757 150° Southeast  Level FlightAware Approximate
08:52PM 6.8714 -64.8133 150° Southeast  Level FlightAware Approximate
08:53PM 6.7629 -64.7509 150° Southeast  Level FlightAware Approximate
08:54PM 6.6544 -64.6885 150° Southeast  Level FlightAware Approximate
08:55PM 6.5458 -64.6261 150° Southeast  Level FlightAware Approximate
08:56PM 6.4373 -64.5637 150° Southeast  Level FlightAware Approximate
08:57PM 6.3287 -64.5014 150° Southeast  Level FlightAware Approximate
08:58PM 6.2202 -64.4391 150° Southeast  Level FlightAware Approximate
08:59PM 6.1116 -64.3769 150° Southeast  Level FlightAware Approximate
09:00PM 6.0030 -64.3146 150° Southeast  Level FlightAware Approximate
09:01PM 5.8945 -64.2524 150° Southeast  Level FlightAware Approximate
09:02PM 5.7859 -64.1902 150° Southeast  Level FlightAware Approximate
09:03PM 5.6773 -64.1280 150° Southeast  Level FlightAware Approximate
09:04PM 5.5687 -64.0659 150° Southeast  Level FlightAware Approximate
09:05PM 5.4601 -64.0038 150° Southeast  Level FlightAware Approximate
09:06PM 5.3514 -63.9417 150° Southeast  Level FlightAware Approximate
09:07PM 5.2428 -63.8796 150° Southeast  Level FlightAware Approximate
09:08PM 5.1342 -63.8175 150° Southeast  Level FlightAware Approximate
09:09PM 5.0256 -63.7555 150° Southeast  Level FlightAware Approximate
09:10PM 4.9169 -63.6935 150° Southeast  Level FlightAware Approximate
09:11PM 4.8083 -63.6315 150° Southeast  Level FlightAware Approximate
09:12PM 4.6996 -63.5695 150° Southeast  Level FlightAware Approximate
09:13PM 4.5910 -63.5076 150° Southeast  Level FlightAware Approximate
09:14PM 4.4823 -63.4456 150° Southeast  Level FlightAware Approximate
09:15PM 4.3736 -63.3837 150° Southeast  Level FlightAware Approximate
09:16PM 4.2650 -63.3218 150° Southeast  Level FlightAware Approximate
09:17PM 4.1563 -63.2599 150° Southeast  Level FlightAware Approximate
09:18PM 4.0476 -63.1981 150° Southeast  Level FlightAware Approximate
09:19PM 3.9389 -63.1362 150° Southeast  Level FlightAware Approximate
09:20PM 3.8302 -63.0744 150° Southeast  Level FlightAware Approximate
09:21PM 3.7164 -63.0230 157° South  Level FlightAware Approximate
09:22PM 3.6017 -62.9731 157° South  Level FlightAware Approximate
09:23PM 3.4871 -62.9232 157° South  Level FlightAware Approximate
09:24PM 3.3725 -62.8733 157° South  Level FlightAware Approximate
09:25PM 3.2579 -62.8234 157° South  Level FlightAware Approximate
09:26PM 3.1432 -62.7735 157° South  Level FlightAware Approximate
09:27PM 3.0286 -62.7237 157° South  Level FlightAware Approximate
09:28PM 2.9140 -62.6738 157° South  Level FlightAware Approximate
09:29PM 2.7993 -62.6240 157° South  Level FlightAware Approximate
09:30PM 2.6847 -62.5741 157° South  Level FlightAware Approximate
09:31PM 2.5701 -62.5243 157° South  Level FlightAware Approximate
09:32PM 2.4554 -62.4745 157° South  Level FlightAware Approximate
09:33PM 2.3408 -62.4247 157° South  Level FlightAware Approximate
09:34PM 2.2261 -62.3749 157° South  Level FlightAware Approximate
09:35PM 2.1115 -62.3251 157° South  Level FlightAware Approximate
09:36PM 1.9968 -62.2754 157° South  Level FlightAware Approximate
09:37PM 1.8823 -62.2253 155° Southeast  Level FlightAware Approximate
09:38PM 1.7686 -62.1734 155° Southeast  Level FlightAware Approximate
09:39PM 1.6549 -62.1215 155° Southeast  Level FlightAware Approximate
09:40PM 1.5412 -62.0696 155° Southeast  Level FlightAware Approximate
09:41PM 1.4275 -62.0177 155° Southeast  Level FlightAware Approximate
09:42PM 1.3138 -61.9659 155° Southeast  Level FlightAware Approximate
09:43PM 1.2000 -61.9140 155° Southeast  Level FlightAware Approximate
09:44PM 1.0863 -61.8622 155° Southeast  Level FlightAware Approximate
09:45PM 0.9726 -61.8103 155° Southeast  Level FlightAware Approximate
09:46PM 0.8585 -61.7594 156° South  Level FlightAware Approximate
09:47PM 0.7442 -61.7088 156° South  Level FlightAware Approximate
09:48PM 0.6300 -61.6581 156° South  Level FlightAware Approximate
09:49PM 0.5157 -61.6074 156° South  Level FlightAware Approximate
09:50PM 0.4015 -61.5568 156° South  Level FlightAware Approximate
09:51PM 0.2872 -61.5061 156° South  Level FlightAware Approximate
09:52PM 0.1730 -61.4554 156° South  Level FlightAware Approximate
09:53PM 0.0587 -61.4048 156° South  Level FlightAware Approximate
09:54PM -0.0555 -61.3541 156° South  Level FlightAware Approximate
09:55PM -0.1698 -61.3035 156° South  Level FlightAware Approximate
09:56PM -0.2840 -61.2528 156° South  Level FlightAware Approximate
09:57PM -0.3983 -61.2022 156° South  Level FlightAware Approximate
09:58PM -0.5125 -61.1515 156° South  Level FlightAware Approximate
09:59PM -0.6268 -61.1008 156° South  Level FlightAware Approximate
09:59PM -1.0140 -61.0020 156° South 460 529 37,000  Level FlightAware
10:00PM -0.7410 -61.0502 156° South  Level FlightAware Approximate
10:00PM -1.0820 -60.9730 157° South 461 531 37,000  Level FlightAware
10:00PM -1.1490 -60.9450 157° South 463 533 36,800 -1,200 Descending FlightAware
10:01PM -1.2170 -60.9170 158° South 472 543 35,700 -2,340 Descending FlightAware
10:01PM -1.2890 -60.8860 157° South 468 539 34,100 -2,640 Descending FlightAware
10:02PM -1.3600 -60.8560 157° South 469 540 32,600 -2,640 Descending FlightAware
10:03PM -1.4230 -60.8300 158° South 467 537 31,200 -2,700 Descending FlightAware
10:03PM -1.5000 -60.7980 157° South 458 527 29,500 -2,700 Descending FlightAware
10:04PM -1.5700 -60.7680 157° South 452 520 27,900 -2,760 Descending FlightAware
10:04PM -1.6320 -60.7420 157° South 447 514 26,400 -2,760 Descending FlightAware
10:05PM -1.6990 -60.7140 157° South 442 509 24,800 -2,640 Descending FlightAware
10:06PM -1.7690 -60.6850 158° South 439 505 23,200 -2,520 Descending FlightAware
10:06PM -1.8260 -60.6600 156° South 430 495 22,000 -2,520 Descending FlightAware
10:07PM -1.8920 -60.6320 157° South 420 483 20,400 -2,520 Descending FlightAware
10:07PM -1.9590 -60.6040 157° South 415 478 18,900 -2,580 Descending FlightAware
10:08PM -2.0250 -60.5770 158° South 421 484 17,300 -2,580 Descending FlightAware
10:08PM -2.0810 -60.5530 157° South 409 471 16,000 -2,220 Descending FlightAware
10:09PM -2.1420 -60.5280 158° South 390 449 14,800 -2,040 Descending FlightAware
10:10PM -2.2020 -60.5020 157° South 390 449 13,600 -1,920 Descending FlightAware
10:10PM -2.2620 -60.4770 157° South 371 427 12,500 -1,380 Descending FlightAware
10:11PM -2.2960 -60.4630 158° South 352 405 12,100 -1,080 Descending FlightAware
10:11PM -2.3610 -60.4350 157° South 319 367 11,300 -1,140 Descending FlightAware
10:12PM -2.4090 -60.4150 157° South 299 344 10,700 -1,080 Descending FlightAware
10:13PM -2.4500 -60.3980 157° South 281 323 10,100 -1,140 Descending FlightAware
10:13PM -2.4750 -60.3870 156° South 273 314 9,700 -1,080 Descending FlightAware
10:13PM -2.4980 -60.3780 159° South 267 307 9,400 -1,260 Descending FlightAware
10:14PM -2.5260 -60.3660 157° South 263 303 8,800 -1,680 Descending FlightAware
10:14PM -2.5480 -60.3560 156° South 266 306 8,200 -1,800 Descending FlightAware
10:14PM -2.5710 -60.3470 159° South 268 308 7,600 -1,740 Descending FlightAware
10:14PM -2.5850 -60.3410 157° South 268 308 7,300 -1,380 Descending FlightAware
10:15PM -2.6120 -60.3300 158° South 264 304 6,800 -1,140 Descending FlightAware
10:15PM -2.6340 -60.3200 156° South 265 305 6,500 -900 Descending FlightAware
10:16PM -2.6570 -60.3110 159° South 264 304 6,200 -1,020 Descending FlightAware
10:16PM -2.6740 -60.3030 155° Southeast 264 304 5,900 -1,020 Descending FlightAware
10:16PM -2.6970 -60.2940 159° South 263 303 5,600 -1,020 Descending FlightAware
10:16PM -2.7160 -60.2860 157° South 261 300 5,300 -1,020 Descending FlightAware
10:17PM -2.7380 -60.2770 158° South 259 298 5,000 -900 Descending FlightAware
10:17PM -2.7600 -60.2670 156° South 259 298 4,700 -1,080 Descending FlightAware
10:17PM -2.7830 -60.2580 159° South 261 300 4,300 -1,140 Descending FlightAware
10:18PM -2.8100 -60.2460 156° South 263 303 3,900 -960 Descending FlightAware
10:18PM -2.8320 -60.2370 158° South 263 303 3,600 -1,080 Descending FlightAware
10:18PM -2.8550 -60.2270 157° South 258 297 3,200 -1,080 Descending FlightAware
10:19PM -2.8760 -60.2180 157° South 254 292 2,900 -1,020 Descending FlightAware
10:19PM -2.9140 -60.2020 157° South 249 287 2,300 -1,020 Descending FlightAware
10:20PM -2.9330 -60.1940 157° South 245 282 2,000 -480 Descending FlightAware
10:20PM -2.9560 -60.1850 159° South 228 262 2,000  Level FlightAware
10:20PM -2.9770 -60.1760 157° South 212 244 2,000  Level FlightAware
10:21PM -2.9980 -60.1670 157° South 187 215 2,000  Level FlightAware
10:21PM -3.0110 -60.1610 155° Southeast 175 201 2,000  Level FlightAware
10:22PM -3.0270 -60.1550 159° South 170 196 2,000  Level FlightAware
10:22PM -3.0310 -60.1520 143° Southeast 170 196 2,000 -420 Level FlightAware
10:22PM -3.0370 -60.1470 140° Southeast 161 185 1,900 -1,020 Descending FlightAware
10:22PM -3.0390 -60.1420 112° Southeast 157 181 1,700 -1,200 Descending FlightAware
10:22PM -3.0390 -60.1400 90° East 160 184 1,700 -780 Level FlightAware
10:22PM -3.0380 -60.1250 86° East 146 168 1,400 -660 Descending FlightAware
10:23PM -3.0390 -60.1090 94° East 142 163 1,200 -720 Descending FlightAware
10:23PM -3.0380 -60.0970 85° East 143 165 900 -780 Descending FlightAware
10:24PM -3.0390 -60.0770 93° East 143 165 600 -720 Descending FlightAware
10:24PM -3.0390 -60.0660 90° East 148 170 400 -300 Descending FlightAware
10:24PM -3.0390 -60.0510 90° East 148 170 400  Level FlightAware